ADDS METAR Data INFO
IDs: Format: Raw Decoded Include TAF

Data at: 1133 UTC 23 Jun 2018

KSTL 231051Z 24005KT 10SM FEW015 BKN041 20/18 A2980 RMK AO2 SLP083 T02000183
KSTL 231012Z 26005KT 10SM SCT015 OVC039 20/18 A2978 RMK AO2 T02000178
KSTL 230951Z 29004KT 10SM BKN015 OVC039 20/18 A2977 RMK AO2 SLP072 T02000178
KSTL 230938Z 27005KT 10SM BKN015 OVC039 20/18 A2977 RMK AO2 T02000178
KSTL 230919Z 30004KT 10SM FEW011 SCT019 OVC037 20/18 A2976 RMK AO2 T02000178
KSTL 230851Z 26006KT 10SM BKN016 OVC037 20/18 A2978 RMK AO2 SLP077 T02000178 55003
KSTL 230826Z 29004KT 10SM BKN016 OVC041 20/18 A2977 RMK AO2 T02000178
KSTL 230759Z 28006KT 10SM FEW017 SCT023 OVC043 20/18 A2977 RMK AO2 T02000178
KSTL 230751Z 28005KT 10SM BKN017 BKN024 OVC045 20/18 A2977 RMK AO2 SLP072 T02000178
KSTL 230651Z 26009KT 10SM FEW012 BKN022 OVC047 20/18 A2979 RMK AO2 SLP077 T02000183
KSTL 230551Z 28005KT 10SM BKN025 OVC046 20/18 A2979 RMK AO2 SLP080 T02000183 10217 20200 402280189 53006
KSTL 230546Z 27005KT 10SM BKN024 OVC046 20/18 A2979 RMK AO2
KSTL 230534Z 30003KT 10SM SCT024 OVC046 20/18 A2978 RMK AO2 T02000183
KSTL 230451Z 32004KT 10SM BKN027 OVC045 20/18 A2977 RMK AO2 SLP073 T02000183
KSTL 230437Z 33004KT 10SM BKN025 OVC045 20/18 A2977 RMK AO2 T02000178
KSTL 230351Z 31004KT 10SM SCT022 OVC046 20/18 A2977 RMK AO2 SLP072 T02000183
KSTL 230251Z 34005KT 10SM FEW022 SCT034 OVC046 21/18 A2976 RMK AO2 SLP068 T02060183 51004
KSTL 230238Z 31005KT 10SM SCT022 OVC048 21/18 A2976 RMK AO2 T02060183
KSTL 230216Z 29004KT 10SM BKN024 OVC042 20/19 A2976 RMK AO2 T02000189
KSTL 230151Z 29005KT 10SM FEW027 OVC041 20/18 A2976 RMK AO2 SLP068 T02000183
KSTL 230138Z 32004KT 10SM SCT025 OVC041 21/18 A2976 RMK AO2 T02060183
KSTL 230051Z 30005KT 10SM BKN024 OVC037 21/18 A2976 RMK AO2 SLP068 VCSH NW T02060183
KSTL 222351Z 30007KT 10SM BKN020 OVC037 22/18 A2975 RMK AO2 SLP065 60012 T02170183 10228 20211 55002
KSTL 222342Z 29008KT 10SM BKN018 BKN037 BKN250 22/18 A2975 RMK AO2 T02170183
KSTL 222317Z 30009KT 10SM SCT018 BKN030 BKN250 22/19 A2974 RMK AO2 T02220189
KSTL 222251Z 31013KT 10SM BKN018 BKN037 BKN250 22/18 A2974 RMK AO2 SLP062 T02170183
KSTL 222151Z 32013KT 10SM SCT010 BKN018 BKN040 BKN250 22/19 A2975 RMK AO2 RAE2054 SLP065 P0000 T02170189
KSTL 222051Z 33013G20KT 10SM -RA SCT008 BKN015 BKN045 BKN250 22/21 A2975 RMK AO2 PK WND 31028/2032 RAE17B34 SLP067 P0003 60012 T02170206 53004
KSTL 222039Z 33012G28KT 7SM -RA FEW010 BKN018 OVC060 21/20 A2975 RMK AO2 PK WND 31028/2032 RAE17B34 P0003 T02110200
KSTL 222004Z 31009KT 6SM -RA BR SCT012 BKN034 OVC050 22/21 A2975 RMK AO2 VIS W 3 P0000 T02220206
KSTL 221951Z 31006KT 10SM -RA BKN013 BKN033 OVC080 22/21 A2974 RMK AO2 SLP064 P0003 T02220206
KSTL 221851Z 29011G20KT 10SM -RA BKN011 BKN025 OVC055 23/21 A2974 RMK AO2 LTG DSNT SE AND S SLP063 P0006 T02280211
KSTL 221823Z 30009KT 10SM -RA SCT011 BKN024 OVC100 22/21 A2975 RMK AO2 LTG DSNT S P0006 T02170206
KSTL 221751Z 29009KT 5SM -RA BR SCT010 BKN060 OVC100 21/21 A2974 RMK AO2 SLP063 P0010 60011 T02110206 10228 20194 51007
KSTL 221651Z 30007KT 10SM -RA SCT021 SCT060 BKN100 BKN250 22/20 A2973 RMK AO2 RAB32 SLP059 P0001 T02170200
KSTL 221636Z 30009KT 10SM -RA SCT021 BKN060 BKN110 BKN250 23/19 A2973 RMK AO2 RAB32 P0000 T02280194
KSTL 221611Z 29009KT 10SM SCT017 BKN027 BKN250 23/19 A2973 RMK AO2 TCU DSNT SW-W T02280194
KSTL 221551Z 27010KT 10SM SCT017 OVC031 23/19 A2973 RMK AO2 SLP058 T02280194
KSTL 221451Z 28009KT 10SM SCT013 BKN022 BKN043 BKN250 22/19 A2972 RMK AO2 SLP054 T02220189 51002
KSTL 221351Z 29008KT 10SM FEW011 BKN018 BKN250 21/19 A2972 RMK AO2 SLP054 T02060189
KSTL 221339Z 29007KT 10SM SCT010 OVC018 21/19 A2972 RMK AO2 T02060189
KSTL 221301Z 29008KT 10SM BKN009 BKN018 OVC038 20/19 A2971 RMK AO2 T02000189
KSTL 221251Z 28011KT 10SM FEW009 BKN012 BKN038 20/19 A2971 RMK AO2 SLP054 T02000189
KSTL 221208Z 28009KT 10SM BKN012 BKN060 OVC250 20/19 A2971 RMK AO2 T02000189
KSTL 221151Z 27008KT 10SM BKN010 OVC065 19/19 A2971 RMK AO2 RAE1058 SLP053 P0000 60014 70015 T01940189 10200 20189 53010
KSTL 221132Z 28007KT 10SM FEW006 OVC010 19/19 A2971 RMK AO2 RAE1058 P0000 T01940189
KSTL 221123Z 29006KT 10SM BKN008 OVC013 19/19 A2971 RMK AO2 RAE1058 P0000 T01940189
KSTL 221103Z 29006KT 10SM SCT010 BKN015 OVC065 19/19 A2971 RMK AO2 RAE1058 P0000 T01940189
KSTL 221051Z 28005KT 5SM -RA BR SCT006 BKN013 OVC070 19/19 A2970 RMK AO2 RAB0953 SLP049 P0014 T01890189
KSTL 221046Z 29005KT 4SM RA BR SCT006 BKN015 OVC065 19/19 A2970 RMK AO2 RAB0953 P0014
KSTL 221031Z 30004KT 4SM -RA BR BKN006 BKN009 OVC018 19/19 A2970 RMK AO2 RAB0953 P0012 T01890189
KSTL 221021Z 29004KT 2SM +RA BR SCT009 OVC015 19/18 A2970 RMK AO2 RAB0953 P0009 T01890183
KSTL 221014Z COR 30004KT 3SM +RA BR SCT009 BKN015 OVC023 19/18 A2970 RMK AO2 RAB0953 P0008 T01890183
KSTL 221005Z 29006KT 4SM -RA BR BKN014 OVC025 19/18 A2969 RMK AO2 RAB0953 P0002 T01940183
KSTL 220951Z 29007KT 10SM SCT014 BKN028 OVC040 19/18 A2969 RMK AO2 SLP042 T01940183
KSTL 220939Z 29007KT 10SM SCT012 BKN030 OVC040 19/18 A2969 RMK AO2 T01940183
KSTL 220904Z 30005KT 10SM SCT009 BKN018 OVC100 19/18 A2968 RMK AO2 T01940183
KSTL 220902Z 29005KT 10SM BKN010 BKN018 OVC100 19/18 A2968 RMK AO2 T01940183
KSTL 220851Z 30004KT 10SM FEW013 SCT090 BKN110 OVC250 19/18 A2968 RMK AO2 SLP039 60000 T01940183 55005
KSTL 220751Z 29004KT 10SM FEW012 BKN041 BKN110 OVC250 19/18 A2968 RMK AO2 RAE49 SLP038 P0000 T01940183
KSTL 220718Z 31005KT 10SM -RA SCT012 BKN030 BKN095 OVC250 19/18 A2968 RMK AO2 P0000 T01940183
KSTL 220651Z 26005KT 10SM -RA SCT015 BKN019 BKN095 BKN250 19/18 A2968 RMK AO2 RAB08 SLP040 P0000 T01940183
KSTL 220629Z 25006KT 10SM -RA BKN017 OVC110 20/18 A2969 RMK AO2 RAB08 P0000 T02000183
KSTL 220617Z 23005KT 10SM -RA BKN013 OVC110 20/18 A2969 RMK AO2 RAB08 P0000 T02000183
KSTL 220551Z 24004KT 10SM FEW022 SCT090 BKN110 OVC250 20/18 A2970 RMK AO2 RAB03E49 SLP045 P0000 60000 T02000183 10222 20200 403000200 58011
KSTL 220451Z 22005KT 10SM FEW028 BKN090 BKN120 21/17 A2971 RMK AO2 SLP049 T02060172
KSTL 220351Z 24007KT 10SM FEW020 BKN032 BKN110 21/17 A2972 RMK AO2 RAE0259 SLP055 P0000 T02060172
KSTL 220313Z 25009KT 10SM BKN025 BKN045 OVC100 21/17 A2973 RMK AO2 RAE0259 P0000 T02110172
KSTL 220251Z 26010KT 10SM -RA BKN030 BKN100 OVC130 22/17 A2973 RMK AO2 RAB44 SLP057 P0000 60000 T02170167 55000
KSTL 220151Z 23005KT 10SM FEW060 SCT100 BKN130 22/16 A2971 RMK AO2 SLP051 T02220161
KSTL 220051Z 25006KT 10SM SCT060 BKN100 BKN200 22/16 A2972 RMK AO2 SLP053 VCSH NW T02220161
KSTL 212351Z 31004KT 10SM FEW045 SCT070 BKN100 BKN230 22/18 A2973 RMK AO2 PK WND 26031/2252 RAB2252E15 SLP058 VCSH N AND S P0001 60001 T02170183 10300 20211 53011